createdAt,value
2022-09-23T00:00:02.547Z,99955.44
2022-09-23T00:00:12.560Z,99956.88
2022-09-23T00:00:22.553Z,99954.11
2022-09-23T00:00:32.520Z,99954.11
2022-09-23T00:00:42.528Z,99951.23
2022-09-23T00:00:52.549Z,99949.64
2022-09-23T00:01:02.688Z,99948.23
2022-09-23T00:01:12.681Z,99953.04
2022-09-23T00:01:22.669Z,99952.78
2022-09-23T00:01:32.592Z,99949.56
2022-09-23T00:01:42.613Z,99953.20
2022-09-23T00:01:52.620Z,99959.39
2022-09-23T00:02:02.650Z,99952.67
2022-09-23T00:02:12.667Z,99951.54
2022-09-23T00:02:22.561Z,99951.50
2022-09-23T00:02:32.600Z,99949.40
2022-09-23T00:02:42.650Z,99946.91
2022-09-23T00:02:52.781Z,99943.32
2022-09-23T00:03:02.557Z,99945.97
2022-09-23T00:03:12.559Z,99947.80
2022-09-23T00:03:22.648Z,99946.47
2022-09-23T00:03:32.560Z,99947.36
2022-09-23T00:03:42.571Z,99949.05
2022-09-23T00:03:52.562Z,99948.05
2022-09-23T00:04:02.549Z,99948.84
2022-09-23T00:04:12.566Z,99951.27
2022-09-23T00:04:22.556Z,99948.62
2022-09-23T00:04:32.566Z,99956.40
2022-09-23T00:04:42.638Z,99945.73
2022-09-23T00:04:52.616Z,99950.67
2022-09-23T00:05:02.613Z,99948.88
2022-09-23T00:05:12.579Z,99947.52
2022-09-23T00:05:22.593Z,99946.24
2022-09-23T00:05:32.524Z,99948.45
2022-09-23T00:05:42.527Z,99952.09
2022-09-23T00:05:52.646Z,99951.33
2022-09-23T00:06:02.537Z,99946.53
2022-09-23T00:06:12.614Z,99945.95
2022-09-23T00:06:22.569Z,99951.93
2022-09-23T00:06:32.633Z,99946.38
2022-09-23T00:06:42.624Z,99949.59
2022-09-23T00:06:52.563Z,99947.38
2022-09-23T00:07:02.536Z,99947.17
2022-09-23T00:07:12.532Z,99948.84
2022-09-23T00:07:22.587Z,99947.44
2022-09-23T00:07:32.563Z,99950.75
2022-09-23T00:07:42.543Z,99946.28
2022-09-23T00:07:52.583Z,99946.78
2022-09-23T00:08:02.593Z,99946.38
2022-09-23T00:08:12.541Z,99944.39
2022-09-23T00:08:22.584Z,99947.09
2022-09-23T00:08:32.608Z,99943.05
2022-09-23T00:08:42.542Z,99941.45
2022-09-23T00:08:52.591Z,99943.52
2022-09-23T00:09:02.646Z,99945.00
2022-09-23T00:09:12.594Z,99941.78
2022-09-23T00:09:22.641Z,99943.94
2022-09-23T00:09:32.546Z,99943.55
2022-09-23T00:09:42.539Z,99945.86
2022-09-23T00:09:52.585Z,99942.78
2022-09-23T00:10:02.590Z,99945.77
2022-09-23T00:10:12.573Z,99946.20
2022-09-23T00:10:22.584Z,99945.27
2022-09-23T00:10:32.580Z,99948.58
2022-09-23T00:10:42.561Z,99940.22
2022-09-23T00:10:52.610Z,99941.95
2022-09-23T00:11:02.630Z,99943.61
2022-09-23T00:11:12.523Z,99945.50
2022-09-23T00:11:22.598Z,99947.59
2022-09-23T00:11:32.636Z,99943.38
2022-09-23T00:11:42.633Z,99944.55
2022-09-23T00:11:52.525Z,99941.20
2022-09-23T00:12:06.853Z,99945.05
2022-09-23T00:12:12.574Z,99943.95
2022-09-23T00:12:22.584Z,99944.20
2022-09-23T00:12:32.621Z,99945.02
2022-09-23T00:12:42.590Z,99949.92
2022-09-23T00:12:52.605Z,99948.98
2022-09-23T00:13:02.584Z,99949.98
2022-09-23T00:13:12.570Z,99945.38
2022-09-23T00:13:22.524Z,99945.77
2022-09-23T00:13:32.525Z,99942.62
2022-09-23T00:13:42.554Z,99942.23
2022-09-23T00:13:52.632Z,99942.02
2022-09-23T00:14:02.589Z,99942.70
2022-09-23T00:14:12.649Z,99940.08
2022-09-23T00:14:22.548Z,99940.05
2022-09-23T00:14:32.641Z,99941.31
2022-09-23T00:14:42.547Z,99939.27
2022-09-23T00:14:52.537Z,99941.58
2022-09-23T00:15:02.577Z,99942.70
2022-09-23T00:15:12.554Z,99942.22
2022-09-23T00:15:22.545Z,99942.56
2022-09-23T00:15:32.545Z,99943.70
2022-09-23T00:15:42.648Z,99943.41
2022-09-23T00:15:52.589Z,99940.09
2022-09-23T00:16:02.639Z,99942.64
2022-09-23T00:16:12.563Z,99936.94
2022-09-23T00:16:22.630Z,99943.04
2022-09-23T00:16:32.791Z,99938.33
2022-09-23T00:16:42.635Z,99939.75
2022-09-23T00:16:52.644Z,99941.48
2022-09-23T00:17:02.728Z,99938.50
2022-09-23T00:17:12.649Z,99939.88
2022-09-23T00:17:22.632Z,99938.99
2022-09-23T00:17:32.547Z,99941.14
2022-09-23T00:17:42.571Z,99937.01
2022-09-23T00:17:52.635Z,99939.16
2022-09-23T00:18:02.589Z,99944.06
2022-09-23T00:18:12.603Z,99940.55
2022-09-23T00:18:22.541Z,99940.58
2022-09-23T00:18:32.578Z,99934.58
2022-09-23T00:18:42.556Z,99938.55
2022-09-23T00:18:52.527Z,99937.44
2022-09-23T00:19:02.567Z,99939.59
2022-09-23T00:19:12.649Z,99938.72
2022-09-23T00:19:22.646Z,99937.44
2022-09-23T00:19:32.618Z,99939.98
2022-09-23T00:19:42.527Z,99937.10
2022-09-23T00:19:52.547Z,99939.48
2022-09-23T00:20:02.572Z,99935.34
2022-09-23T00:20:12.567Z,99936.51
2022-09-23T00:20:22.615Z,99936.84
2022-09-23T00:20:32.628Z,99938.33
2022-09-23T00:20:42.537Z,99935.84
2022-09-23T00:20:52.605Z,99936.24
2022-09-23T00:21:02.583Z,99936.18
2022-09-23T00:21:12.585Z,99935.52
2022-09-23T00:21:22.634Z,99936.60
2022-09-23T00:21:32.583Z,99939.73
2022-09-23T00:21:42.603Z,99938.50
2022-09-23T00:21:52.541Z,99935.30
2022-09-23T00:22:02.571Z,99936.91
2022-09-23T00:22:12.653Z,99937.95
2022-09-23T00:22:22.566Z,99933.14
2022-09-23T00:22:32.527Z,99935.52
2022-09-23T00:22:42.637Z,99934.10
2022-09-23T00:22:52.641Z,99937.08
2022-09-23T00:23:02.558Z,99934.10
2022-09-23T00:23:12.574Z,99939.17
2022-09-23T00:23:22.570Z,99935.45
2022-09-23T00:23:32.593Z,99940.23
2022-09-23T00:23:42.607Z,99939.56
2022-09-23T00:23:52.545Z,99938.50
2022-09-23T00:24:02.627Z,99936.02
2022-09-23T00:24:12.649Z,99937.41
2022-09-23T00:24:22.539Z,99936.25
2022-09-23T00:24:32.582Z,99935.26
2022-09-23T00:24:42.543Z,99937.12
2022-09-23T00:24:52.652Z,99933.60
2022-09-23T00:25:02.605Z,99936.62
2022-09-23T00:25:12.650Z,99934.14
2022-09-23T00:25:22.640Z,99938.02
2022-09-23T00:25:32.637Z,99934.80
2022-09-23T00:25:42.532Z,99938.02
2022-09-23T00:25:52.573Z,99937.28
2022-09-23T00:26:02.534Z,99933.81
2022-09-23T00:26:12.559Z,99933.65
2022-09-23T00:26:22.613Z,99936.09
2022-09-23T00:26:32.620Z,99937.78
2022-09-23T00:26:42.604Z,99936.27
2022-09-23T00:26:52.642Z,99935.20
2022-09-23T00:27:02.545Z,99937.80
2022-09-23T00:27:12.556Z,99931.41
2022-09-23T00:27:22.576Z,99938.76
2022-09-23T00:27:32.647Z,99937.20
2022-09-23T00:27:42.542Z,99932.89
2022-09-23T00:27:52.579Z,99933.80
2022-09-23T00:28:02.636Z,99936.05
2022-09-23T00:28:12.552Z,99939.96
2022-09-23T00:28:22.529Z,99936.31
2022-09-23T00:28:32.573Z,99934.99
2022-09-23T00:28:42.637Z,99931.80
2022-09-23T00:28:52.643Z,99934.99
2022-09-23T00:29:02.638Z,99940.45
2022-09-23T00:29:12.538Z,99931.68
2022-09-23T00:29:22.532Z,99935.48
2022-09-23T00:29:32.601Z,99931.66
2022-09-23T00:29:42.594Z,99936.48
2022-09-23T00:29:52.580Z,99936.81
2022-09-23T00:30:02.624Z,99937.48
2022-09-23T00:30:12.522Z,99934.96
2022-09-23T00:30:22.796Z,99934.41
2022-09-23T00:30:32.689Z,99936.22
2022-09-23T00:30:42.633Z,99940.88
2022-09-23T00:30:52.734Z,99932.97
2022-09-23T00:31:02.590Z,99934.35
2022-09-23T00:31:12.635Z,99932.19
2022-09-23T00:31:22.676Z,99938.83
2022-09-23T00:31:32.549Z,99938.98
2022-09-23T00:31:42.526Z,99937.50
2022-09-23T00:31:52.533Z,99933.36
2022-09-23T00:32:02.632Z,99933.19
2022-09-23T00:32:12.617Z,99935.18
2022-09-23T00:32:22.595Z,99937.41
2022-09-23T00:32:32.601Z,99931.34
2022-09-23T00:32:42.546Z,99935.52
2022-09-23T00:32:52.636Z,99931.51
2022-09-23T00:33:02.656Z,99932.03
2022-09-23T00:33:12.557Z,99931.28
2022-09-23T00:33:22.554Z,99935.98
2022-09-23T00:33:32.650Z,99933.20
2022-09-23T00:33:42.632Z,99931.61
2022-09-23T00:33:52.531Z,99931.45
2022-09-23T00:34:02.652Z,99928.07
2022-09-23T00:34:12.610Z,99930.95
2022-09-23T00:34:22.531Z,99925.41
2022-09-23T00:34:32.527Z,99933.59
2022-09-23T00:34:42.583Z,99929.79
2022-09-23T00:34:52.628Z,99932.44
2022-09-23T00:35:02.609Z,99930.52
2022-09-23T00:35:12.611Z,99935.64
2022-09-23T00:35:22.590Z,99928.55
2022-09-23T00:35:32.654Z,99932.16
2022-09-23T00:35:42.527Z,99932.66
2022-09-23T00:35:52.574Z,99930.53
2022-09-23T00:36:02.556Z,99933.34
2022-09-23T00:36:12.539Z,99933.19
2022-09-23T00:36:22.650Z,99929.51
2022-09-23T00:36:32.591Z,99936.31
2022-09-23T00:36:42.586Z,99929.84
2022-09-23T00:36:52.614Z,99930.38
2022-09-23T00:37:02.519Z,99931.94
2022-09-23T00:37:12.540Z,99930.68
2022-09-23T00:37:22.626Z,99930.89
2022-09-23T00:37:32.621Z,99929.56
2022-09-23T00:37:42.596Z,99934.00
2022-09-23T00:37:52.627Z,99926.97
2022-09-23T00:38:02.569Z,99925.16
2022-09-23T00:38:12.578Z,99928.70
2022-09-23T00:38:22.612Z,99930.39
2022-09-23T00:38:32.575Z,99924.98
2022-09-23T00:38:42.534Z,99928.53
2022-09-23T00:38:52.616Z,99929.41
2022-09-23T00:39:04.246Z,99927.88
2022-09-23T00:39:12.599Z,99930.90
2022-09-23T00:39:22.547Z,99925.89
2022-09-23T00:39:32.582Z,99929.41
2022-09-23T00:39:42.596Z,99928.04
2022-09-23T00:39:52.605Z,99932.85
2022-09-23T00:40:02.791Z,99924.94
2022-09-23T00:40:12.642Z,99929.20
2022-09-23T00:40:22.665Z,99929.36
2022-09-23T00:40:32.671Z,99927.09
2022-09-23T00:40:42.627Z,99930.40
2022-09-23T00:40:52.557Z,99925.66
2022-09-23T00:41:02.610Z,99925.55
2022-09-23T00:41:12.628Z,99927.58
2022-09-23T00:41:22.603Z,99927.31
2022-09-23T00:41:32.552Z,99929.36
2022-09-23T00:41:42.543Z,99921.19
2022-09-23T00:41:52.553Z,99924.34
2022-09-23T00:42:02.534Z,99927.58
2022-09-23T00:42:12.569Z,99924.57
2022-09-23T00:42:22.599Z,99928.25
2022-09-23T00:42:32.645Z,99929.86
2022-09-23T00:42:42.652Z,99929.53
2022-09-23T00:42:52.646Z,99922.41
2022-09-23T00:43:02.596Z,99923.73
2022-09-23T00:43:12.591Z,99924.09
2022-09-23T00:43:22.611Z,99925.83
2022-09-23T00:43:32.595Z,99928.07
2022-09-23T00:43:42.638Z,99924.06
2022-09-23T00:43:52.571Z,99922.40
2022-09-23T00:44:02.602Z,99922.17
2022-09-23T00:44:12.625Z,99920.28
2022-09-23T00:44:22.636Z,99918.70
2022-09-23T00:44:32.622Z,99920.26
2022-09-23T00:44:42.537Z,99920.42
2022-09-23T00:44:52.556Z,99921.52
2022-09-23T00:45:02.520Z,99919.64
2022-09-23T00:45:12.544Z,99916.12
2022-09-23T00:45:22.618Z,99918.53
2022-09-23T00:45:32.650Z,99920.62
2022-09-23T00:45:42.586Z,99918.64
2022-09-23T00:45:52.622Z,99915.89
2022-09-23T00:46:02.677Z,99919.80
2022-09-23T00:46:12.680Z,99911.98
2022-09-23T00:46:22.705Z,99916.82
2022-09-23T00:46:32.685Z,99915.80
2022-09-23T00:46:42.582Z,99916.66
2022-09-23T00:46:52.610Z,99914.64
2022-09-23T00:47:02.633Z,99917.39
2022-09-23T00:47:12.530Z,99915.73
2022-09-23T00:47:22.595Z,99915.07
2022-09-23T00:47:32.584Z,99916.00
2022-09-23T00:47:42.600Z,99917.46
2022-09-23T00:47:52.544Z,99916.83
2022-09-23T00:48:02.623Z,99916.34
2022-09-23T00:48:12.557Z,99916.14
2022-09-23T00:48:22.564Z,99918.78
2022-09-23T00:48:32.642Z,99920.53
2022-09-23T00:48:42.542Z,99919.61
2022-09-23T00:48:52.582Z,99921.44
2022-09-23T00:49:02.572Z,99921.36
2022-09-23T00:49:12.612Z,99916.23
2022-09-23T00:49:22.596Z,99917.12
2022-09-23T00:49:32.656Z,99916.63
2022-09-23T00:49:42.590Z,99917.72
2022-09-23T00:49:52.629Z,99917.49
2022-09-23T00:50:02.608Z,99916.47
2022-09-23T00:50:12.601Z,99919.12
2022-09-23T00:50:22.621Z,99916.30
2022-09-23T00:50:32.522Z,99914.36
2022-09-23T00:50:42.628Z,99918.45
2022-09-23T00:50:52.550Z,99920.95
2022-09-23T00:51:02.578Z,99918.50
2022-09-23T00:51:12.587Z,99919.49
2022-09-23T00:51:22.621Z,99919.88
2022-09-23T00:51:32.521Z,99914.98
2022-09-23T00:51:42.583Z,99917.50
2022-09-23T00:51:52.558Z,99917.17
2022-09-23T00:52:02.529Z,99913.36
2022-09-23T00:52:12.520Z,99914.81
2022-09-23T00:52:22.537Z,99916.48
2022-09-23T00:52:32.648Z,99914.42
2022-09-23T00:52:42.535Z,99914.03
2022-09-23T00:52:52.553Z,99914.09
2022-09-23T00:53:02.626Z,99911.83
2022-09-23T00:53:12.642Z,99911.67
2022-09-23T00:53:22.561Z,99908.52
2022-09-23T00:53:32.549Z,99914.66
2022-09-23T00:53:42.596Z,99914.36
2022-09-23T00:53:52.536Z,99910.67
2022-09-23T00:54:02.624Z,99912.44
2022-09-23T00:54:12.599Z,99909.72
2022-09-23T00:54:22.586Z,99910.72
2022-09-23T00:54:32.570Z,99906.58
2022-09-23T00:54:42.570Z,99913.33
2022-09-23T00:54:52.586Z,99913.94
2022-09-23T00:55:02.557Z,99910.69
2022-09-23T00:55:12.581Z,99913.20
2022-09-23T00:55:22.652Z,99910.38
2022-09-23T00:55:32.619Z,99908.53
2022-09-23T00:55:42.591Z,99912.94
2022-09-23T00:55:52.625Z,99911.18
2022-09-23T00:56:02.634Z,99907.97
2022-09-23T00:56:12.564Z,99909.13
2022-09-23T00:56:22.565Z,99912.77
2022-09-23T00:56:32.633Z,99914.37
2022-09-23T00:56:42.551Z,99915.25
2022-09-23T00:56:52.620Z,99916.91
2022-09-23T00:57:02.641Z,99912.04
2022-09-23T00:57:12.642Z,99910.84
2022-09-23T00:57:22.629Z,99911.18
2022-09-23T00:57:32.589Z,99912.44
2022-09-23T00:57:42.573Z,99910.52
2022-09-23T00:57:52.566Z,99912.16
2022-09-23T00:58:02.559Z,99914.03
2022-09-23T00:58:12.575Z,99908.20
2022-09-23T00:58:22.549Z,99911.21
2022-09-23T00:58:32.563Z,99909.03
2022-09-23T00:58:42.637Z,99908.14
2022-09-23T00:58:52.630Z,99906.98
2022-09-23T00:59:02.561Z,99910.29
2022-09-23T00:59:12.584Z,99907.23
2022-09-23T00:59:22.625Z,99907.97
2022-09-23T00:59:32.562Z,99905.98
2022-09-23T00:59:42.557Z,99906.42
2022-09-23T00:59:52.549Z,99912.84
2022-09-23T01:00:02.553Z,99911.28
2022-09-23T01:00:12.549Z,99911.62
2022-09-23T01:00:22.597Z,99910.39
2022-09-23T01:00:32.595Z,99910.56
2022-09-23T01:00:42.519Z,99912.86
2022-09-23T01:00:52.617Z,99914.77
2022-09-23T01:01:02.671Z,99911.79
2022-09-23T01:01:12.613Z,99910.03
2022-09-23T01:01:22.744Z,99910.20
2022-09-23T01:01:32.625Z,99910.91
2022-09-23T01:01:42.625Z,99909.53
2022-09-23T01:01:52.588Z,99906.49
2022-09-23T01:02:02.676Z,99909.90
2022-09-23T01:02:12.663Z,99905.73
2022-09-23T01:02:22.714Z,99904.92
2022-09-23T01:02:32.575Z,99906.42
2022-09-23T01:02:42.668Z,99908.88
2022-09-23T01:02:52.608Z,99908.25
2022-09-23T01:03:02.575Z,99907.92
2022-09-23T01:03:12.522Z,99908.05
2022-09-23T01:03:22.532Z,99909.88
2022-09-23T01:03:32.624Z,99904.61
2022-09-23T01:03:42.537Z,99906.27
2022-09-23T01:03:52.651Z,99906.77
2022-09-23T01:04:02.584Z,99904.91
2022-09-23T01:04:12.607Z,99907.92
2022-09-23T01:04:22.587Z,99904.01
2022-09-23T01:04:32.647Z,99909.47
2022-09-23T01:04:42.633Z,99910.31
2022-09-23T01:04:52.628Z,99906.42
2022-09-23T01:05:02.565Z,99908.05
2022-09-23T01:05:12.635Z,99911.53
2022-09-23T01:05:22.564Z,99911.38
2022-09-23T01:05:32.554Z,99911.73
2022-09-23T01:05:42.583Z,99910.31
2022-09-23T01:05:52.592Z,99907.16
2022-09-23T01:06:02.614Z,99904.67
2022-09-23T01:06:12.653Z,99904.46
2022-09-23T01:06:22.652Z,99906.78
2022-09-23T01:06:32.549Z,99909.92
2022-09-23T01:06:42.577Z,99909.09
2022-09-23T01:06:52.652Z,99906.25
2022-09-23T01:07:02.581Z,99912.81
2022-09-23T01:07:12.618Z,99904.30
2022-09-23T01:07:22.616Z,99907.02
2022-09-23T01:07:32.572Z,99904.03
2022-09-23T01:07:42.525Z,99907.18
2022-09-23T01:07:52.563Z,99906.61
2022-09-23T01:08:02.592Z,99905.19
2022-09-23T01:08:12.543Z,99906.94
2022-09-23T01:08:22.597Z,99905.45
2022-09-23T01:08:32.630Z,99903.36
2022-09-23T01:08:42.540Z,99907.61
2022-09-23T01:08:52.555Z,99908.23
2022-09-23T01:09:02.644Z,99910.72
2022-09-23T01:09:12.553Z,99902.97
2022-09-23T01:09:22.527Z,99904.46
2022-09-23T01:09:32.569Z,99899.62
2022-09-23T01:09:42.642Z,99908.73
2022-09-23T01:09:52.629Z,99904.53
2022-09-23T01:10:02.644Z,99902.14
2022-09-23T01:10:12.524Z,99901.38
2022-09-23T01:10:22.552Z,99897.47
2022-09-23T01:10:32.567Z,99904.86
2022-09-23T01:10:42.574Z,99897.74
2022-09-23T01:10:52.568Z,99893.77
2022-09-23T01:11:02.642Z,99896.25
2022-09-23T01:11:12.572Z,99893.28
2022-09-23T01:11:22.586Z,99896.36
2022-09-23T01:11:32.596Z,99893.71
2022-09-23T01:11:42.642Z,99892.22
2022-09-23T01:11:52.543Z,99901.57
2022-09-23T01:12:02.561Z,99903.39
2022-09-23T01:12:12.566Z,99897.43
2022-09-23T01:12:22.521Z,99890.64
2022-09-23T01:12:32.533Z,99890.41
2022-09-23T01:12:42.642Z,99893.53
2022-09-23T01:12:52.630Z,99891.96
2022-09-23T01:13:02.601Z,99894.69
2022-09-23T01:13:12.571Z,99892.45
2022-09-23T01:13:22.521Z,99893.19
2022-09-23T01:13:32.588Z,99895.02
2022-09-23T01:13:42.580Z,99893.95
2022-09-23T01:13:52.588Z,99889.39
2022-09-23T01:14:02.621Z,99890.88
2022-09-23T01:14:12.583Z,99889.76
2022-09-23T01:14:22.595Z,99889.73
2022-09-23T01:14:32.614Z,99887.44
2022-09-23T01:14:42.564Z,99888.59
2022-09-23T01:14:52.583Z,99893.06
2022-09-23T01:15:02.534Z,99890.49
2022-09-23T01:15:12.613Z,99889.92
2022-09-23T01:15:22.542Z,99889.98
2022-09-23T01:15:32.534Z,99887.08
2022-09-23T01:15:42.559Z,99888.44
2022-09-23T01:15:52.532Z,99887.08
2022-09-23T01:16:02.568Z,99889.73
2022-09-23T01:16:12.635Z,99886.25
2022-09-23T01:16:22.627Z,99886.41
2022-09-23T01:16:32.708Z,99884.53
2022-09-23T01:16:42.609Z,99887.25
2022-09-23T01:16:52.692Z,99885.42
2022-09-23T01:17:02.644Z,99887.17
2022-09-23T01:17:12.580Z,99885.12
2022-09-23T01:17:22.616Z,99883.05
2022-09-23T01:17:32.556Z,99885.95
2022-09-23T01:17:42.594Z,99886.09
2022-09-23T01:17:52.566Z,99886.12
2022-09-23T01:18:02.597Z,99884.80
2022-09-23T01:18:12.540Z,99884.53
2022-09-23T01:18:22.579Z,99884.75
2022-09-23T01:18:32.652Z,99882.30
2022-09-23T01:18:42.639Z,99884.36
2022-09-23T01:18:52.541Z,99884.92
2022-09-23T01:19:02.599Z,99881.64
2022-09-23T01:19:12.583Z,99882.94
2022-09-23T01:19:22.522Z,99882.14
2022-09-23T01:19:32.636Z,99885.86
2022-09-23T01:19:42.625Z,99881.54
2022-09-23T01:19:52.598Z,99885.25
2022-09-23T01:20:02.643Z,99886.25
2022-09-23T01:20:12.665Z,99883.42
2022-09-23T01:20:22.571Z,99882.37
2022-09-23T01:20:32.635Z,99881.44
2022-09-23T01:20:42.592Z,99884.25
2022-09-23T01:20:52.609Z,99881.47
2022-09-23T01:21:02.552Z,99884.67
2022-09-23T01:21:12.631Z,99882.02
2022-09-23T01:21:22.534Z,99883.62
2022-09-23T01:21:32.596Z,99887.89
2022-09-23T01:21:42.636Z,99885.34
2022-09-23T01:21:52.582Z,99887.59
2022-09-23T01:22:02.546Z,99882.29
2022-09-23T01:22:12.542Z,99884.00
2022-09-23T01:22:22.531Z,99884.61
2022-09-23T01:22:32.637Z,99882.95
2022-09-23T01:22:42.581Z,99883.45
2022-09-23T01:22:52.538Z,99886.27
2022-09-23T01:23:02.637Z,99885.10
2022-09-23T01:23:12.653Z,99881.69
2022-09-23T01:23:22.545Z,99884.73
2022-09-23T01:23:32.551Z,99883.95
2022-09-23T01:23:42.571Z,99886.09
2022-09-23T01:23:52.600Z,99881.52
2022-09-23T01:24:02.650Z,99880.86
2022-09-23T01:24:12.650Z,99882.62
2022-09-23T01:24:22.522Z,99884.56
2022-09-23T01:24:32.601Z,99882.52
2022-09-23T01:24:42.597Z,99880.13
2022-09-23T01:24:52.551Z,99883.95
2022-09-23T01:25:02.534Z,99880.47
2022-09-23T01:25:12.633Z,99878.39
2022-09-23T01:25:22.618Z,99881.03
2022-09-23T01:25:32.556Z,99884.78
2022-09-23T01:25:42.621Z,99883.26
2022-09-23T01:25:52.544Z,99881.63
2022-09-23T01:26:02.545Z,99883.12
2022-09-23T01:26:12.643Z,99884.19
2022-09-23T01:26:22.568Z,99881.11
2022-09-23T01:26:32.664Z,99885.41
2022-09-23T01:26:42.624Z,99877.66
2022-09-23T01:26:52.542Z,99880.61
2022-09-23T01:27:02.550Z,99880.70
2022-09-23T01:27:12.585Z,99878.66
2022-09-23T01:27:22.548Z,99881.60
2022-09-23T01:27:32.609Z,99878.32
2022-09-23T01:27:42.587Z,99879.45
2022-09-23T01:27:52.652Z,99880.44
2022-09-23T01:28:02.536Z,99878.66
2022-09-23T01:28:12.532Z,99874.58
2022-09-23T01:28:22.629Z,99877.55
2022-09-23T01:28:32.549Z,99876.48
2022-09-23T01:28:42.649Z,99873.02
2022-09-23T01:28:52.606Z,99876.95
2022-09-23T01:29:02.676Z,99882.25
2022-09-23T01:29:12.606Z,99873.52
2022-09-23T01:29:22.592Z,99876.89
2022-09-23T01:29:32.615Z,99876.16
2022-09-23T01:29:42.539Z,99877.72
2022-09-23T01:29:52.531Z,99884.84
2022-09-23T01:30:02.546Z,99878.81
2022-09-23T01:30:12.570Z,99876.82
2022-09-23T01:30:22.636Z,99877.48
2022-09-23T01:30:32.699Z,99870.92
2022-09-23T01:30:42.670Z,99878.15
2022-09-23T01:30:52.611Z,99872.68
2022-09-23T01:31:02.656Z,99878.48
2022-09-23T01:31:12.672Z,99875.00
2022-09-23T01:31:22.627Z,99874.50
2022-09-23T01:31:32.665Z,99876.23
2022-09-23T01:31:42.522Z,99877.95
2022-09-23T01:31:52.607Z,99875.96
2022-09-23T01:32:02.594Z,99870.66
2022-09-23T01:32:12.637Z,99874.80
2022-09-23T01:32:22.529Z,99875.89
2022-09-23T01:32:32.598Z,99872.42
2022-09-23T01:32:42.599Z,99876.48
2022-09-23T01:32:52.519Z,99873.34
2022-09-23T01:33:02.579Z,99868.66
2022-09-23T01:33:12.555Z,99873.64
2022-09-23T01:33:22.639Z,99867.44
2022-09-23T01:33:32.564Z,99870.98
2022-09-23T01:33:42.605Z,99872.35
2022-09-23T01:33:52.536Z,99874.56
2022-09-23T01:34:02.609Z,99871.19
2022-09-23T01:34:12.579Z,99868.38
2022-09-23T01:34:22.643Z,99872.84
2022-09-23T01:34:32.591Z,99872.48
2022-09-23T01:34:42.567Z,99875.51
2022-09-23T01:34:52.554Z,99871.09
2022-09-23T01:35:02.556Z,99871.83
2022-09-23T01:35:12.534Z,99869.67
2022-09-23T01:35:22.625Z,99872.33
2022-09-23T01:35:32.645Z,99869.61
2022-09-23T01:35:42.651Z,99865.38
2022-09-23T01:35:52.580Z,99869.02
2022-09-23T01:36:02.546Z,99866.03
2022-09-23T01:36:12.619Z,99866.73
2022-09-23T01:36:22.523Z,99869.12
2022-09-23T01:36:32.528Z,99867.36
2022-09-23T01:36:42.572Z,99867.03
2022-09-23T01:36:52.653Z,99867.73
2022-09-23T01:37:02.624Z,99866.80
2022-09-23T01:37:12.623Z,99868.12
2022-09-23T01:37:22.647Z,99869.28
2022-09-23T01:37:32.544Z,99865.47
2022-09-23T01:37:42.548Z,99866.81
2022-09-23T01:37:52.600Z,99868.23
2022-09-23T01:38:02.623Z,99866.53
2022-09-23T01:38:12.542Z,99865.55
2022-09-23T01:38:22.590Z,99868.30
2022-09-23T01:38:32.554Z,99865.74
2022-09-23T01:38:42.545Z,99864.88
2022-09-23T01:38:52.636Z,99868.96
2022-09-23T01:39:02.568Z,99865.22
2022-09-23T01:39:12.584Z,99870.05
2022-09-23T01:39:22.590Z,99869.55
2022-09-23T01:39:32.568Z,99865.64
2022-09-23T01:39:42.541Z,99866.41
2022-09-23T01:39:52.597Z,99864.42
2022-09-23T01:40:02.761Z,99867.14
2022-09-23T01:40:12.577Z,99865.31
2022-09-23T01:40:22.686Z,99867.86
2022-09-23T01:40:32.675Z,99859.24
2022-09-23T01:40:42.643Z,99865.80
2022-09-23T01:40:52.615Z,99867.20
2022-09-23T01:41:02.607Z,99864.88
2022-09-23T01:41:12.573Z,99863.22
2022-09-23T01:41:22.608Z,99862.92
2022-09-23T01:41:32.636Z,99864.05
2022-09-23T01:41:42.624Z,99863.00
2022-09-23T01:41:52.614Z,99866.14
2022-09-23T01:42:02.628Z,99861.08
2022-09-23T01:42:12.536Z,99860.52
2022-09-23T01:42:22.619Z,99860.24
2022-09-23T01:42:32.554Z,99861.34
2022-09-23T01:42:42.592Z,99860.68
2022-09-23T01:42:52.635Z,99861.91
2022-09-23T01:43:02.575Z,99866.05
2022-09-23T01:43:12.558Z,99862.00
2022-09-23T01:43:22.563Z,99861.41
2022-09-23T01:43:32.637Z,99859.27
2022-09-23T01:43:42.555Z,99857.77
2022-09-23T01:43:52.577Z,99860.75
2022-09-23T01:44:02.665Z,99861.91
2022-09-23T01:44:12.522Z,99858.43
2022-09-23T01:44:22.642Z,99858.77
2022-09-23T01:44:32.617Z,99861.74
2022-09-23T01:44:42.553Z,99860.58
2022-09-23T01:44:52.578Z,99858.95
2022-09-23T01:45:02.590Z,99855.28
2022-09-23T01:45:12.648Z,99862.73
2022-09-23T01:45:22.647Z,99864.44
2022-09-23T01:45:32.581Z,99860.58
2022-09-23T01:45:42.595Z,99858.77
2022-09-23T01:45:52.639Z,99858.36
2022-09-23T01:46:02.631Z,99864.99
2022-09-23T01:46:12.573Z,99863.23
2022-09-23T01:46:22.640Z,99860.25
2022-09-23T01:46:32.546Z,99861.84
2022-09-23T01:46:42.644Z,99862.67
2022-09-23T01:46:52.627Z,99862.43
2022-09-23T01:47:02.580Z,99862.73
2022-09-23T01:47:12.581Z,99856.59
2022-09-23T01:47:22.579Z,99858.42
2022-09-23T01:47:32.638Z,99857.52
2022-09-23T01:47:42.535Z,99858.29
2022-09-23T01:47:52.588Z,99860.28
2022-09-23T01:48:02.603Z,99861.57
2022-09-23T01:48:12.687Z,99860.34
2022-09-23T01:48:22.639Z,99858.69
2022-09-23T01:48:32.665Z,99858.26
2022-09-23T01:48:42.672Z,99857.95
2022-09-23T01:48:52.605Z,99861.08
2022-09-23T01:49:02.589Z,99859.91
2022-09-23T01:49:12.637Z,99862.43
2022-09-23T01:49:22.620Z,99856.12
2022-09-23T01:49:32.631Z,99860.17
2022-09-23T01:49:42.577Z,99860.11
2022-09-23T01:49:52.652Z,99857.68
2022-09-23T01:50:02.601Z,99863.72
2022-09-23T01:50:12.590Z,99863.22
2022-09-23T01:50:22.553Z,99859.07
2022-09-23T01:50:32.638Z,99862.39
2022-09-23T01:50:42.526Z,99861.82
2022-09-23T01:50:52.522Z,99861.16
2022-09-23T01:51:02.543Z,99858.78
2022-09-23T01:51:12.534Z,99855.86
2022-09-23T01:51:22.559Z,99858.08
2022-09-23T01:51:32.575Z,99859.67
2022-09-23T01:51:42.591Z,99858.44
2022-09-23T01:51:52.566Z,99860.10
2022-09-23T01:52:02.530Z,99857.91
2022-09-23T01:52:12.526Z,99859.94
2022-09-23T01:52:22.634Z,99861.33
2022-09-23T01:52:32.559Z,99857.75
2022-09-23T01:52:42.652Z,99857.94
2022-09-23T01:52:52.543Z,99855.30
2022-09-23T01:53:02.602Z,99857.94
2022-09-23T01:53:12.574Z,99858.67
2022-09-23T01:53:22.640Z,99860.09
2022-09-23T01:53:32.546Z,99855.30
2022-09-23T01:53:42.660Z,99857.78
2022-09-23T01:53:52.603Z,99854.03
2022-09-23T01:54:02.624Z,99856.28
2022-09-23T01:54:12.627Z,99858.83
2022-09-23T01:54:22.575Z,99857.84
2022-09-23T01:54:32.551Z,99859.17
2022-09-23T01:54:42.562Z,99860.27
2022-09-23T01:54:52.603Z,99858.77
2022-09-23T01:55:02.532Z,99858.50
2022-09-23T01:55:12.522Z,99856.28
2022-09-23T01:55:22.601Z,99855.36
2022-09-23T01:55:32.653Z,99853.97
2022-09-23T01:55:42.636Z,99855.62
2022-09-23T01:55:52.655Z,99856.09
2022-09-23T01:56:02.558Z,99857.41
2022-09-23T01:56:12.581Z,99857.24
2022-09-23T01:56:22.602Z,99856.95
2022-09-23T01:56:32.552Z,99856.34
2022-09-23T01:56:42.546Z,99854.42
2022-09-23T01:56:52.525Z,99855.95
2022-09-23T01:57:02.618Z,99855.42
2022-09-23T01:57:12.645Z,99853.69
2022-09-23T01:57:22.619Z,99856.51